createdAt,value
2019-03-25T00:03:24.977Z,93.30
2019-03-25T00:07:26.893Z,93.50
2019-03-25T00:11:28.805Z,93.50
2019-03-25T00:15:30.705Z,93.50
2019-03-25T00:19:32.649Z,93.60
2019-03-25T00:23:34.566Z,93.60
2019-03-25T00:27:36.470Z,93.70
2019-03-25T00:31:38.391Z,93.90
2019-03-25T00:35:40.553Z,93.80
2019-03-25T00:39:43.429Z,94.00
2019-03-25T00:43:45.338Z,93.50
2019-03-25T00:47:47.245Z,93.70
2019-03-25T00:51:49.162Z,93.70
2019-03-25T00:55:51.083Z,93.80
2019-03-25T00:59:53.321Z,94.10
2019-03-25T01:03:55.310Z,94.20
2019-03-25T01:07:57.247Z,94.20
2019-03-25T01:11:59.161Z,94.10
2019-03-25T01:16:03.564Z,94.20
2019-03-25T01:20:10.458Z,94.10
2019-03-25T01:24:12.431Z,94.20
2019-03-25T01:28:15.160Z,94.30
2019-03-25T01:32:17.084Z,94.30
2019-03-25T01:36:18.991Z,94.70
2019-03-25T01:40:20.904Z,94.90
2019-03-25T01:44:22.805Z,95.00
2019-03-25T01:48:24.720Z,95.10
2019-03-25T01:52:26.611Z,96.50
2019-03-25T01:56:28.513Z,95.40
2019-03-25T02:00:30.468Z,96.30
2019-03-25T02:04:32.378Z,96.20
2019-03-25T02:08:34.304Z,95.80
2019-03-25T02:12:36.212Z,95.60
2019-03-25T02:16:38.123Z,95.00
2019-03-25T02:20:40.035Z,94.80
2019-03-25T02:24:42.245Z,94.50
2019-03-25T02:28:44.141Z,94.20
2019-03-25T02:32:46.060Z,94.20
2019-03-25T02:36:48.013Z,94.60
2019-03-25T02:40:49.923Z,93.90
2019-03-25T02:44:51.830Z,93.90
2019-03-25T02:48:53.744Z,94.00
2019-03-25T02:52:58.969Z,93.50
2019-03-25T02:57:02.945Z,93.60
2019-03-25T03:01:04.936Z,93.40
2019-03-25T03:05:08.530Z,93.10
2019-03-25T03:25:56.388Z,92.70
2019-03-25T03:29:45.932Z,92.80
2019-03-25T03:33:47.882Z,92.90
2019-03-25T03:37:50.017Z,92.80
2019-03-25T03:41:51.911Z,93.00
2019-03-25T03:45:53.879Z,93.00
2019-03-25T03:49:55.771Z,93.20
2019-03-25T03:53:58.217Z,93.30
2019-03-25T03:58:03.450Z,93.20
2019-03-25T04:02:05.356Z,92.60
2019-03-25T04:06:07.265Z,92.70
2019-03-25T04:10:09.513Z,92.40
2019-03-25T04:14:11.603Z,91.90
2019-03-25T04:18:13.504Z,91.50
2019-03-25T04:22:15.407Z,91.10
2019-03-25T04:26:28.590Z,90.30
2019-03-25T04:30:21.044Z,90.40
2019-03-25T04:34:22.944Z,90.60
2019-03-25T04:38:44.172Z,90.90
2019-03-25T04:42:54.382Z,90.80
2019-03-25T04:46:56.483Z,91.20
2019-03-25T04:50:58.458Z,91.60
2019-03-25T04:55:00.445Z,91.80
2019-03-25T04:59:02.682Z,92.10
2019-03-25T05:03:05.074Z,92.20
2019-03-25T05:07:07.048Z,92.50
2019-03-25T05:11:08.997Z,92.50
2019-03-25T05:15:11.350Z,92.40
2019-03-25T05:19:13.263Z,92.50
2019-03-25T05:23:15.170Z,92.60
2019-03-25T05:27:17.094Z,92.70
2019-03-25T05:31:18.984Z,92.70
2019-03-25T05:35:20.900Z,92.90
2019-03-25T05:39:22.795Z,93.40
2019-03-25T05:43:24.712Z,92.90
2019-03-25T05:47:26.662Z,92.40
2019-03-25T05:51:28.643Z,92.10
2019-03-25T05:55:30.550Z,91.60
2019-03-25T05:59:32.469Z,90.60
2019-03-25T06:03:34.402Z,90.50
2019-03-25T06:07:36.328Z,90.00
2019-03-25T06:11:38.231Z,89.60
2019-03-25T06:15:40.168Z,89.30
2019-03-25T06:19:42.333Z,87.90
2019-03-25T06:23:44.244Z,87.30
2019-03-25T06:27:46.784Z,86.60
2019-03-25T06:31:48.746Z,85.70
2019-03-25T06:35:50.683Z,85.00
2019-03-25T06:39:52.602Z,84.60
2019-03-25T06:43:54.499Z,82.90
2019-03-25T06:47:56.489Z,81.70
2019-03-25T06:51:59.304Z,80.80
2019-03-25T06:56:04.321Z,81.80
2019-03-25T07:00:09.459Z,80.70
2019-03-25T07:04:11.434Z,80.50
2019-03-25T07:16:30.149Z,79.20
2019-03-25T07:20:32.061Z,78.20
2019-03-25T07:24:33.956Z,78.90
2019-03-25T07:28:35.935Z,79.30
2019-03-25T07:32:44.809Z,77.30
2019-03-25T07:36:46.698Z,75.20
2019-03-25T07:40:48.679Z,75.60
2019-03-25T07:44:50.595Z,75.70
2019-03-25T07:48:52.780Z,73.30
2019-03-25T07:52:54.668Z,72.20
2019-03-25T07:56:56.605Z,72.60
2019-03-25T08:00:58.513Z,70.80
2019-03-25T08:05:00.435Z,69.90
2019-03-25T08:09:04.025Z,68.90
2019-03-25T08:13:06.314Z,67.60
2019-03-25T08:17:08.260Z,66.60
2019-03-25T08:21:10.164Z,64.70
2019-03-25T08:25:12.556Z,66.10
2019-03-25T08:29:14.459Z,67.50
2019-03-25T08:33:16.440Z,68.00
2019-03-25T08:37:21.818Z,65.90
2019-03-25T08:41:23.715Z,66.40
2019-03-25T08:45:25.655Z,65.80
2019-03-25T08:49:27.568Z,64.60
2019-03-25T08:53:29.518Z,65.50
2019-03-25T08:57:31.417Z,69.40
2019-03-25T09:01:33.347Z,72.40
2019-03-25T09:05:35.236Z,74.10
2019-03-25T09:09:37.146Z,76.80
2019-03-25T09:13:39.039Z,79.60
2019-03-25T09:17:41.057Z,79.10
2019-03-25T09:21:43.018Z,80.00
2019-03-25T09:25:45.017Z,78.30
2019-03-25T09:29:46.939Z,78.80
2019-03-25T09:33:51.191Z,79.20
2019-03-25T09:37:53.085Z,77.90
2019-03-25T09:41:54.992Z,76.10
2019-03-25T09:45:56.884Z,75.50
2019-03-25T09:49:58.789Z,75.20
2019-03-25T09:54:00.697Z,73.90
2019-03-25T09:58:05.491Z,74.30
2019-03-25T10:02:07.586Z,73.90
2019-03-25T10:06:09.544Z,74.20
2019-03-25T10:10:11.754Z,74.30
2019-03-25T10:14:13.657Z,76.40
2019-03-25T10:18:15.544Z,76.90
2019-03-25T10:22:17.541Z,77.90
2019-03-25T10:26:22.636Z,79.90
2019-03-25T10:30:25.323Z,79.70
2019-03-25T10:34:27.230Z,76.00
2019-03-25T10:38:30.230Z,75.50
2019-03-25T10:42:32.140Z,73.50
2019-03-25T10:46:34.102Z,75.90
2019-03-25T10:50:36.547Z,72.50
2019-03-25T10:54:38.523Z,73.90
2019-03-25T10:58:40.523Z,74.20
2019-03-25T11:02:42.414Z,77.00
2019-03-25T11:06:48.120Z,79.60
2019-03-25T11:10:49.106Z,78.50
2019-03-25T11:14:51.014Z,74.80
2019-03-25T11:18:53.162Z,73.50
2019-03-25T11:22:55.877Z,70.40
2019-03-25T11:26:57.825Z,65.20
2019-03-25T11:31:00.235Z,61.00
2019-03-25T11:35:05.615Z,58.60
2019-03-25T11:39:09.309Z,58.60
2019-03-25T11:43:11.209Z,59.70
2019-03-25T11:47:13.203Z,60.00
2019-03-25T11:51:15.189Z,64.20
2019-03-25T11:55:17.896Z,68.10
2019-03-25T11:59:19.955Z,76.60
2019-03-25T12:03:21.923Z,82.70
2019-03-25T12:07:23.811Z,86.50
2019-03-25T12:11:25.716Z,89.80
2019-03-25T12:15:27.615Z,90.60
2019-03-25T12:19:29.625Z,91.80
2019-03-25T12:23:31.511Z,92.30
2019-03-25T12:27:33.502Z,93.10
2019-03-25T12:31:35.405Z,93.00
2019-03-25T12:35:37.530Z,93.80
2019-03-25T12:39:39.429Z,94.10
2019-03-25T12:43:42.562Z,92.30
2019-03-25T12:47:44.444Z,91.30
2019-03-25T12:51:48.358Z,89.50
2019-03-25T12:55:49.942Z,87.10
2019-03-25T12:59:51.847Z,86.30
2019-03-25T13:03:53.774Z,84.90
2019-03-25T13:07:55.680Z,82.40
2019-03-25T13:11:57.572Z,77.40
2019-03-25T13:15:59.469Z,77.80
2019-03-25T13:20:04.662Z,82.20
2019-03-25T13:24:08.073Z,82.90
2019-03-25T13:28:09.957Z,84.30
2019-03-25T13:32:11.862Z,81.30
2019-03-25T13:36:13.777Z,78.60
2019-03-25T13:40:16.288Z,75.50
2019-03-25T13:44:18.190Z,74.40
2019-03-25T13:48:20.096Z,71.40
2019-03-25T13:52:22.005Z,67.90
2019-03-25T13:56:23.919Z,66.90
2019-03-25T14:00:37.790Z,67.20
2019-03-25T14:04:39.689Z,66.50
2019-03-25T14:08:42.653Z,68.80
2019-03-25T14:12:44.563Z,68.90
2019-03-25T14:16:49.356Z,70.30
2019-03-25T14:20:50.067Z,69.60
2019-03-25T14:24:51.979Z,69.50
2019-03-25T14:28:53.974Z,71.80
2019-03-25T14:32:55.882Z,74.80
2019-03-25T14:36:57.794Z,85.00
2019-03-25T14:40:59.696Z,90.60
2019-03-25T14:45:04.738Z,92.10
2019-03-25T14:49:06.714Z,93.10
2019-03-25T14:53:08.598Z,93.60
2019-03-25T14:57:10.719Z,93.40
2019-03-25T15:01:12.607Z,93.70
2019-03-25T15:05:15.401Z,93.60
2019-03-25T15:09:17.304Z,93.50
2019-03-25T15:13:19.179Z,93.50
2019-03-25T15:17:21.079Z,93.10
2019-03-25T15:21:22.981Z,92.90
2019-03-25T15:25:24.867Z,93.10
2019-03-25T15:29:26.781Z,93.10
2019-03-25T15:33:28.685Z,92.70
2019-03-25T15:37:30.607Z,92.50
2019-03-25T15:41:32.509Z,92.90
2019-03-25T15:45:34.598Z,92.00
2019-03-25T15:49:36.482Z,92.30
2019-03-25T15:53:38.379Z,91.90
2019-03-25T15:57:53.965Z,92.00
2019-03-25T16:01:55.952Z,92.30
2019-03-25T16:05:57.843Z,93.00
2019-03-25T16:09:59.735Z,93.00
2019-03-25T16:14:01.615Z,93.80
2019-03-25T16:18:06.656Z,93.30
2019-03-25T16:22:09.161Z,93.30
2019-03-25T16:26:11.077Z,93.50
2019-03-25T16:30:13.236Z,93.90
2019-03-25T16:34:15.122Z,94.70
2019-03-25T16:38:17.109Z,94.30
2019-03-25T16:42:19.011Z,93.80
2019-03-25T16:46:21.385Z,93.70
2019-03-25T16:50:23.286Z,93.90
2019-03-25T16:54:25.179Z,93.70
2019-03-25T16:58:27.084Z,93.80
2019-03-25T17:02:28.980Z,93.90
2019-03-25T17:06:30.887Z,93.90
2019-03-25T17:10:32.789Z,94.20
2019-03-25T17:14:34.678Z,94.20
2019-03-25T17:18:36.556Z,94.20
2019-03-25T17:22:38.495Z,94.30
2019-03-25T17:26:42.553Z,94.70
2019-03-25T17:30:43.976Z,94.70
2019-03-25T17:34:45.872Z,94.80
2019-03-25T17:38:47.770Z,94.80
2019-03-25T17:42:49.715Z,94.80
2019-03-25T17:46:52.580Z,95.10
2019-03-25T17:50:54.466Z,95.10
2019-03-25T17:54:56.406Z,95.10
2019-03-25T17:58:58.331Z,95.20
2019-03-25T18:03:10.561Z,95.40
2019-03-25T18:07:22.170Z,95.50
2019-03-25T18:11:34.326Z,95.70
2019-03-25T18:15:36.331Z,95.70
2019-03-25T18:19:38.231Z,95.70
2019-03-25T18:23:40.126Z,95.90
2019-03-25T18:27:42.831Z,96.10
2019-03-25T18:31:44.732Z,96.20
2019-03-25T18:35:47.588Z,96.10
2019-03-25T18:39:49.484Z,96.10
2019-03-25T18:43:51.394Z,95.90
2019-03-25T18:47:53.509Z,95.90
2019-03-25T18:51:55.438Z,95.70
2019-03-25T18:55:57.409Z,95.60
2019-03-25T18:59:59.319Z,95.70
2019-03-25T19:04:04.416Z,96.00
2019-03-25T19:08:08.802Z,95.90
2019-03-25T19:12:10.684Z,96.20
2019-03-25T19:16:13.552Z,95.70
2019-03-25T19:20:15.474Z,95.40
2019-03-25T19:24:17.364Z,95.30
2019-03-25T19:28:19.248Z,95.10
2019-03-25T19:32:21.879Z,95.00
2019-03-25T19:36:23.774Z,95.30
2019-03-25T19:40:25.647Z,95.30
2019-03-25T19:44:27.559Z,95.30
2019-03-25T19:48:29.463Z,95.40
2019-03-25T19:52:31.333Z,95.10
2019-03-25T19:56:33.231Z,95.00
2019-03-25T20:00:39.213Z,95.20
2019-03-25T20:04:41.212Z,94.90
2019-03-25T20:08:43.280Z,95.00
2019-03-25T20:12:45.220Z,94.70
2019-03-25T20:16:47.136Z,94.70
2019-03-25T20:20:49.050Z,94.70
2019-03-25T20:24:50.927Z,94.80
2019-03-25T20:28:52.851Z,95.00
2019-03-25T20:32:54.723Z,94.90
2019-03-25T20:36:56.609Z,95.00
2019-03-25T20:40:58.500Z,95.60
2019-03-25T20:45:00.413Z,95.70
2019-03-25T20:49:02.559Z,95.80
2019-03-25T20:53:04.641Z,96.00
2019-03-25T20:57:06.583Z,95.70
2019-03-25T21:01:08.470Z,95.90
2019-03-25T21:05:11.408Z,96.20
2019-03-25T21:09:32.556Z,96.60
2019-03-25T21:13:38.058Z,96.60
2019-03-25T21:17:39.965Z,95.90
2019-03-25T21:21:42.896Z,96.30
2019-03-25T21:25:44.780Z,96.40
2019-03-25T21:29:46.652Z,96.20
2019-03-25T21:33:48.753Z,96.30
2019-03-25T21:37:50.748Z,96.20
2019-03-25T21:41:52.678Z,95.80
2019-03-25T21:45:54.652Z,95.50
2019-03-25T21:49:56.655Z,95.60
2019-03-25T21:53:58.568Z,95.80
2019-03-25T21:58:00.616Z,95.80
2019-03-25T22:02:02.724Z,95.90
2019-03-25T22:06:04.630Z,95.90
2019-03-25T22:10:08.420Z,96.00
2019-03-25T22:14:10.321Z,95.80
2019-03-25T22:18:12.233Z,95.90
2019-03-25T22:22:14.144Z,96.00
2019-03-25T22:26:16.070Z,96.30
2019-03-25T22:30:18.134Z,96.40
2019-03-25T22:34:20.104Z,96.30
2019-03-25T22:38:22.003Z,96.40
2019-03-25T22:42:24.071Z,96.50
2019-03-25T22:46:25.973Z,96.40
2019-03-25T22:50:30.495Z,96.40
2019-03-25T22:54:32.442Z,96.60
2019-03-25T22:58:34.523Z,96.50
2019-03-25T23:02:36.419Z,96.60
2019-03-25T23:06:38.319Z,96.90
2019-03-25T23:10:40.196Z,96.90
2019-03-25T23:14:44.868Z,97.00
2019-03-25T23:18:47.032Z,97.00
2019-03-25T23:22:48.923Z,97.00
2019-03-25T23:26:51.822Z,97.10
2019-03-25T23:30:53.771Z,97.20
2019-03-25T23:34:55.680Z,97.30
2019-03-25T23:38:57.634Z,97.30
2019-03-25T23:42:59.531Z,96.90
2019-03-25T23:47:01.895Z,97.00
2019-03-25T23:51:03.849Z,97.10
2019-03-25T23:55:07.503Z,97.00
2019-03-25T23:59:09.381Z,97.00
